Time;durP1;ratioP1;P1;durP2;ratioP2;P2;SDS_P1;SDS_P2;PMS_P1;PMS_P2;Temp;Humidity;BMP_temperature;BMP_pressure;BME280_temperature;BME280_humidity;BME280_pressure;Samples;Min_cycle;Max_cycle;Signal;HPM_P1;HPM_P2
2023/07/08 00:01:15;;;;;;;13.80;3.83;;;;;;;18.52;61.26;100975.13;5086801;28;20024;-44
2023/07/08 00:03:42;;;;;;;13.40;4.53;;;;;;;18.53;62.24;100976.75;5089932;28;20032;-43
2023/07/08 00:06:17;;;;;;;17.67;4.68;;;;;;;18.78;61.29;100975.41;5075105;28;20017;-46
2023/07/08 00:08:43;;;;;;;14.02;4.57;;;;;;;18.76;61.72;100972.94;5073144;28;20469;-45
2023/07/08 00:11:13;;;;;;;14.35;3.80;;;;;;;18.78;61.20;100969.97;5072833;28;20116;-47
2023/07/08 00:13:40;;;;;;;11.68;3.70;;;;;;;18.68;61.11;100970.69;5073181;28;20382;-48
2023/07/08 00:16:14;;;;;;;15.80;4.55;;;;;;;18.65;61.17;100963.84;5073409;28;20540;-48
2023/07/08 00:18:41;;;;;;;14.13;4.50;;;;;;;18.64;60.63;100970.34;5082866;28;20028;-48
2023/07/08 00:21:15;;;;;;;12.60;3.60;;;;;;;18.66;60.88;100957.38;5082184;28;20052;-47
2023/07/08 00:23:48;;;;;;;14.60;4.82;;;;;;;18.62;61.93;100969.78;5073256;28;20056;-46
2023/07/08 00:26:26;;;;;;;11.30;3.80;;;;;;;18.52;62.35;100958.84;5085799;28;20370;-43
2023/07/08 00:28:53;;;;;;;19.77;5.18;;;;;;;18.09;63.39;100949.69;5093288;28;20081;-49
2023/07/08 00:31:23;;;;;;;19.52;4.85;;;;;;;17.96;63.93;100960.94;5093194;28;20028;-48
2023/07/08 00:33:56;;;;;;;19.45;4.68;;;;;;;17.87;64.69;100960.53;5093254;28;20023;-46
2023/07/08 00:36:24;;;;;;;18.08;5.00;;;;;;;17.97;63.59;100957.16;5091905;28;20020;-49
2023/07/08 00:38:51;;;;;;;11.95;4.05;;;;;;;17.94;64.15;100953.06;5093016;28;20381;-48
2023/07/08 00:41:40;;;;;;;13.02;4.43;;;;;;;17.97;64.25;100951.72;5093142;28;20044;-46
2023/07/08 00:44:15;;;;;;;13.55;4.95;;;;;;;17.59;63.98;100941.72;5093077;28;20016;-49
2023/07/08 00:47:12;;;;;;;17.00;4.90;;;;;;;17.69;65.50;100939.16;5092844;28;20024;-45
2023/07/08 00:49:49;;;;;;;14.88;4.05;;;;;;;17.56;64.98;100943.06;5090355;28;20044;-45
2023/07/08 00:52:28;;;;;;;13.57;4.47;;;;;;;17.47;65.13;100947.25;5092743;28;20111;-46
2023/07/08 00:54:58;;;;;;;15.25;5.18;;;;;;;17.58;65.65;100937.38;5075078;28;20454;-48
2023/07/08 00:57:30;;;;;;;17.25;4.85;;;;;;;17.72;65.82;100941.41;5090537;28;20031;-45
2023/07/08 01:00:03;;;;;;;18.77;4.63;;;;;;;17.62;65.67;100952.06;5076755;28;20444;-48
2023/07/08 01:02:34;;;;;;;26.40;5.30;;;;;;;17.68;65.54;100942.94;5076618;28;20016;-46
2023/07/08 01:05:10;;;;;;;25.55;5.32;;;;;;;17.46;66.40;100940.22;5093212;28;20385;-48
2023/07/08 01:07:40;;;;;;;12.25;4.25;;;;;;;17.61;65.50;100936.91;5093113;28;20436;-45
2023/07/08 01:10:12;;;;;;;19.40;4.78;;;;;;;17.31;66.11;100937.28;5092912;28;20024;-47
2023/07/08 01:12:48;;;;;;;15.90;4.82;;;;;;;17.41;66.21;100932.81;5092986;28;20020;-48
2023/07/08 01:15:15;;;;;;;17.60;4.60;;;;;;;17.51;66.14;100939.47;5084199;28;20363;-47
2023/07/08 01:17:44;;;;;;;15.00;4.70;;;;;;;17.49;65.99;100931.59;5080349;28;20031;-46
2023/07/08 01:20:14;;;;;;;17.83;5.07;;;;;;;17.22;66.38;100927.97;5081629;28;20047;-49
2023/07/08 01:22:42;;;;;;;19.25;5.00;;;;;;;17.41;66.49;100927.41;5082919;28;20028;-46
2023/07/08 01:25:10;;;;;;;19.88;5.07;;;;;;;17.36;66.55;100918.41;5089724;28;20028;-45
2023/07/08 01:27:40;;;;;;;16.88;5.13;;;;;;;17.24;66.67;100925.81;5089917;28;20062;-46
2023/07/08 01:30:07;;;;;;;16.13;5.00;;;;;;;17.31;66.21;100931.88;5091783;28;20027;-47
2023/07/08 01:32:43;;;;;;;20.08;5.60;;;;;;;17.25;66.51;100924.75;5092346;28;20032;-47
2023/07/08 01:35:11;;;;;;;21.35;5.68;;;;;;;17.14;66.90;100921.88;5092243;28;20028;-44
2023/07/08 01:37:39;;;;;;;18.80;5.32;;;;;;;17.21;66.71;100927.13;5092030;28;20020;-48
2023/07/08 01:40:38;;;;;;;13.77;4.90;;;;;;;17.18;67.22;100924.91;5092432;28;20028;-48
2023/07/08 01:43:05;;;;;;;16.92;5.43;;;;;;;17.15;67.17;100922.69;5048132;28;20067;-46
2023/07/08 01:45:37;;;;;;;22.50;5.93;;;;;;;17.10;67.28;100926.16;5092659;28;20038;-46
2023/07/08 01:48:07;;;;;;;18.25;5.53;;;;;;;17.25;67.30;100922.03;5092234;28;20024;-48
2023/07/08 01:50:37;;;;;;;21.33;6.03;;;;;;;17.28;66.99;100927.78;5082631;28;20176;-45
2023/07/08 01:53:19;;;;;;;19.10;5.35;;;;;;;17.11;67.34;100932.41;5083812;28;20051;-49
2023/07/08 01:55:46;;;;;;;15.30;5.07;;;;;;;17.17;67.72;100930.59;5083463;28;20035;-48
2023/07/08 01:58:12;;;;;;;14.55;5.57;;;;;;;17.27;67.15;100930.75;5072474;28;20039;-49
2023/07/08 02:00:38;;;;;;;15.70;4.90;;;;;;;17.29;66.88;100934.00;5071645;28;20466;-48
2023/07/08 02:03:05;;;;;;;21.08;4.97;;;;;;;17.15;67.11;100934.34;5071587;28;20032;-47
2023/07/08 02:05:31;;;;;;;13.60;4.72;;;;;;;17.42;66.91;100939.06;5079072;28;20020;-50
2023/07/08 02:07:57;;;;;;;14.48;4.93;;;;;;;17.76;65.90;100945.22;5090632;28;20036;-50
2023/07/08 02:10:25;;;;;;;14.02;3.97;;;;;;;17.82;65.08;100933.44;5090368;28;20470;-47
2023/07/08 02:12:51;;;;;;;17.02;4.90;;;;;;;17.69;65.46;100926.44;5083082;28;20027;-45
2023/07/08 02:15:17;;;;;;;14.45;5.38;;;;;;;17.68;65.19;100924.00;5090461;28;20081;-44
2023/07/08 02:17:43;;;;;;;15.07;4.82;;;;;;;18.08;63.86;100920.16;5091374;28;20031;-45
2023/07/08 02:20:10;;;;;;;25.67;5.55;;;;;;;18.18;64.00;100923.81;5091579;28;20433;-45
2023/07/08 02:22:36;;;;;;;16.00;5.32;;;;;;;18.03;63.89;100917.41;5075504;28;20028;-44
2023/07/08 02:25:03;;;;;;;15.50;4.50;;;;;;;18.09;63.31;100928.03;5087357;28;20024;-45
2023/07/08 02:27:29;;;;;;;22.85;6.53;;;;;;;18.01;63.96;100923.09;5091103;28;20027;-44
2023/07/08 02:29:55;;;;;;;18.90;4.82;;;;;;;18.05;63.79;100921.50;5091576;28;20047;-46
2023/07/08 02:32:22;;;;;;;10.75;4.35;;;;;;;18.12;63.99;100924.00;5091710;28;20114;-43
2023/07/08 02:34:48;;;;;;;14.63;5.10;;;;;;;18.20;63.83;100934.38;5086427;28;20114;-46
2023/07/08 02:37:14;;;;;;;13.88;5.15;;;;;;;18.17;64.24;100927.59;5075927;28;20017;-50
2023/07/08 02:39:40;;;;;;;15.65;4.00;;;;;;;18.26;63.70;100919.81;5111480;28;20042;-48
2023/07/08 02:42:07;;;;;;;19.10;5.03;;;;;;;18.22;63.70;100920.59;5076012;28;20498;-46
2023/07/08 02:44:33;;;;;;;17.30;4.75;;;;;;;18.08;63.92;100917.47;5091385;28;20031;-49
2023/07/08 02:47:00;;;;;;;23.30;6.00;;;;;;;17.76;65.06;100922.75;5090928;28;20016;-49
2023/07/08 02:49:26;;;;;;;16.30;5.38;;;;;;;17.45;66.48;100922.34;5091339;28;20390;-49
2023/07/08 02:51:52;;;;;;;22.48;6.15;;;;;;;17.38;66.74;100927.94;5106925;28;20046;-51
2023/07/08 02:54:18;;;;;;;15.40;4.93;;;;;;;17.31;66.57;100918.34;5084562;28;20024;-51
2023/07/08 02:56:45;;;;;;;13.55;4.72;;;;;;;17.35;67.07;100923.00;5090888;28;20016;-49
2023/07/08 02:59:11;;;;;;;20.25;5.35;;;;;;;16.86;68.76;100925.50;5090279;28;20042;-44
2023/07/08 03:01:41;;;;;;;19.60;5.25;;;;;;;16.66;69.86;100930.56;5111404;28;20024;-44
2023/07/08 03:04:14;;;;;;;20.20;5.68;;;;;;;16.53;70.40;100912.75;5111546;28;20027;-45
2023/07/08 03:06:41;;;;;;;19.17;5.75;;;;;;;16.40;71.01;100923.88;5111391;28;20024;-47
2023/07/08 03:09:08;;;;;;;18.17;5.63;;;;;;;16.01;72.36;100933.66;5079722;28;20119;-48
2023/07/08 03:11:35;;;;;;;18.20;5.40;;;;;;;15.94;72.21;100920.31;5089228;28;20031;-46
2023/07/08 03:14:01;;;;;;;14.95;5.68;;;;;;;15.67;73.80;100935.38;5091147;28;20028;-47
2023/07/08 03:16:28;;;;;;;19.50;5.70;;;;;;;15.48;74.60;100931.94;5080543;28;20055;-45
2023/07/08 03:18:54;;;;;;;20.02;5.78;;;;;;;15.41;75.23;100931.25;5091130;28;20020;-46
2023/07/08 03:21:21;;;;;;;23.05;5.40;;;;;;;15.46;75.29;100931.38;5090642;28;20098;-47
2023/07/08 03:23:49;;;;;;;23.63;6.15;;;;;;;15.31;75.90;100929.16;5074501;28;20103;-46
2023/07/08 03:26:21;;;;;;;21.58;6.07;;;;;;;15.05;77.02;100944.75;5073986;28;20120;-45
2023/07/08 03:28:48;;;;;;;15.10;5.13;;;;;;;15.16;76.33;100931.53;5074166;28;20046;-47
2023/07/08 03:31:14;;;;;;;19.15;5.70;;;;;;;15.02;76.90;100936.28;5085189;28;20028;-46
2023/07/08 03:33:40;;;;;;;19.38;5.80;;;;;;;14.83;77.83;100945.53;5084421;28;20047;-48
2023/07/08 03:36:24;;;;;;;16.48;5.45;;;;;;;14.67;78.68;100941.63;5094801;28;20115;-46
2023/07/08 03:38:56;;;;;;;17.45;6.18;;;;;;;14.71;78.16;100940.94;5094970;28;20028;-44
2023/07/08 03:41:23;;;;;;;16.27;5.10;;;;;;;14.72;78.25;100939.88;5094713;28;20052;-47
2023/07/08 03:43:53;;;;;;;18.92;5.85;;;;;;;14.52;78.92;100942.88;5094386;28;20024;-44
2023/07/08 03:46:21;;;;;;;20.75;5.88;;;;;;;14.43;79.30;100940.69;5094490;28;20039;-44
2023/07/08 03:48:47;;;;;;;18.65;5.80;;;;;;;14.33;80.26;100933.19;5094404;28;20027;-45
2023/07/08 03:51:26;;;;;;;16.77;5.80;;;;;;;14.25;80.98;100931.63;5094347;28;20030;-47
2023/07/08 03:53:52;;;;;;;18.65;6.47;;;;;;;14.33;80.78;100938.56;5094544;28;20034;-47
2023/07/08 03:56:18;;;;;;;24.75;6.10;;;;;;;14.34;80.71;100950.97;5094359;28;20016;-45
2023/07/08 03:58:44;;;;;;;16.95;5.68;;;;;;;14.26;81.17;100948.59;5094247;28;20129;-45
2023/07/08 04:01:16;;;;;;;18.92;5.43;;;;;;;14.21;80.89;100953.81;5094474;28;20027;-48
2023/07/08 04:03:43;;;;;;;16.58;5.97;;;;;;;14.19;81.52;100954.06;5092206;28;20055;-45
2023/07/08 04:06:09;;;;;;;18.02;5.65;;;;;;;14.16;81.49;100949.16;5072555;28;20020;-47
2023/07/08 04:08:36;;;;;;;18.77;5.60;;;;;;;13.99;82.31;100957.03;5085281;28;20485;-44
2023/07/08 04:11:02;;;;;;;24.73;7.22;;;;;;;13.98;82.88;100957.22;5082140;28;20532;-45
2023/07/08 04:13:28;;;;;;;24.20;6.22;;;;;;;14.06;82.98;100954.25;5073333;28;20512;-45
2023/07/08 04:15:59;;;;;;;16.17;6.68;;;;;;;13.96;83.62;100954.75;5073501;28;20095;-45
2023/07/08 04:18:25;;;;;;;20.45;6.70;;;;;;;13.99;83.42;100966.94;5073111;28;20035;-45
2023/07/08 04:20:53;;;;;;;23.63;6.85;;;;;;;13.97;83.78;100960.97;5073471;28;20108;-45
2023/07/08 04:23:20;;;;;;;20.33;6.75;;;;;;;13.95;83.31;100969.28;5073746;28;20036;-45
2023/07/08 04:25:49;;;;;;;21.77;5.95;;;;;;;13.95;83.07;100974.66;5093353;28;20043;-45
2023/07/08 04:28:15;;;;;;;20.65;6.72;;;;;;;13.93;82.83;100976.72;5092901;28;20020;-45
2023/07/08 04:30:43;;;;;;;21.55;6.43;;;;;;;13.91;nan;100991.47;5092677;28;20543;-44
2023/07/08 04:33:14;;;;;;;24.02;5.90;;;;;;;13.93;83.25;100990.19;5092803;28;20040;-45
2023/07/08 04:35:42;;;;;;;22.90;5.90;;;;;;;13.87;83.44;100985.69;5091116;28;20020;-44
2023/07/08 04:38:19;;;;;;;21.55;6.22;;;;;;;13.86;83.40;100989.44;5091992;23;20052;-44
2023/07/08 04:40:45;;;;;;;15.82;6.28;;;;;;;13.92;83.02;100993.09;5092854;28;20024;-45
2023/07/08 04:43:12;;;;;;;17.20;6.10;;;;;;;13.79;83.58;100988.69;5092918;28;20031;-46
2023/07/08 04:45:43;;;;;;;15.43;5.65;;;;;;;13.77;83.28;100993.50;5093028;28;20499;-45
2023/07/08 04:48:14;;;;;;;23.10;6.53;;;;;;;13.69;83.74;100994.59;5092750;28;20036;-47
2023/07/08 04:50:46;;;;;;;24.70;6.05;;;;;;;13.74;83.47;100999.31;5093138;28;20465;-44
2023/07/08 04:53:13;;;;;;;22.35;5.97;;;;;;;13.68;83.85;100990.25;5092703;28;20075;-45
2023/07/08 04:55:54;;;;;;;18.70;5.80;;;;;;;13.72;83.63;101002.22;5092845;28;20074;-43
2023/07/08 04:58:20;;;;;;;15.35;5.57;;;;;;;13.67;83.99;101018.22;5092487;28;20016;-47
2023/07/08 05:00:46;;;;;;;20.65;7.05;;;;;;;13.74;83.84;101023.53;5092392;28;20028;-45
2023/07/08 05:03:13;;;;;;;19.80;6.22;;;;;;;13.69;84.05;101026.06;5092515;28;20024;-43
2023/07/08 05:05:39;;;;;;;16.58;5.95;;;;;;;13.70;83.79;101022.31;5092694;28;20552;-48
2023/07/08 05:08:06;;;;;;;22.02;6.00;;;;;;;13.69;83.54;101023.34;5092443;28;20030;-45
2023/07/08 05:10:33;;;;;;;22.52;6.47;;;;;;;13.64;83.81;101028.59;5092307;28;20028;-44
2023/07/08 05:13:00;;;;;;;21.55;6.63;;;;;;;13.62;83.96;101028.81;5092514;28;20509;-44
2023/07/08 05:15:26;;;;;;;22.60;5.80;;;;;;;13.71;83.73;101030.19;5092277;28;20063;-48
2023/07/08 05:17:52;;;;;;;16.08;6.07;;;;;;;13.70;83.63;101030.38;5099296;28;20020;-45
2023/07/08 05:20:19;;;;;;;19.92;6.80;;;;;;;13.72;83.13;101028.31;5112762;28;20235;-46
2023/07/08 05:22:46;;;;;;;17.30;5.97;;;;;;;13.56;83.60;101031.56;5112616;28;20024;-45
2023/07/08 05:25:14;;;;;;;22.63;6.43;;;;;;;13.56;84.11;101021.63;5112622;28;20535;-48
2023/07/08 05:27:40;;;;;;;26.65;7.68;;;;;;;13.48;84.48;101038.84;5112322;28;20030;-45
2023/07/08 05:30:08;;;;;;;18.13;5.72;;;;;;;13.39;85.40;101039.38;5110776;28;20015;-44
2023/07/08 05:32:34;;;;;;;20.60;6.72;;;;;;;13.59;84.18;101039.19;5112462;28;20032;-47
2023/07/08 05:35:01;;;;;;;18.98;5.63;;;;;;;13.56;84.09;101039.63;5103832;28;20027;-46
2023/07/08 05:37:28;;;;;;;19.00;6.40;;;;;;;13.52;84.59;101033.03;5091604;28;20052;-44
2023/07/08 05:39:55;;;;;;;24.40;6.57;;;;;;;13.34;85.45;101042.72;5101847;28;20111;-43
2023/07/08 05:42:22;;;;;;;17.60;6.60;;;;;;;13.34;85.79;101033.81;5112155;28;20023;-45
2023/07/08 05:44:51;;;;;;;19.70;6.43;;;;;;;13.36;85.23;101037.91;5111345;28;20509;-45
2023/07/08 05:47:18;;;;;;;19.08;6.03;;;;;;;13.49;84.79;101034.28;5112205;28;20106;-44
2023/07/08 05:49:44;;;;;;;16.10;6.30;;;;;;;13.34;85.31;101034.66;5112193;28;20031;-44
2023/07/08 05:52:11;;;;;;;21.10;6.05;;;;;;;13.37;85.51;101023.44;5101307;28;20087;-45
2023/07/08 05:54:38;;;;;;;15.48;5.60;;;;;;;13.42;85.11;101036.22;5091705;28;20063;-44
2023/07/08 05:57:06;;;;;;;16.60;6.63;;;;;;;13.30;85.58;101029.91;5091389;28;20027;-45
2023/07/08 05:59:33;;;;;;;25.00;5.97;;;;;;;13.27;85.74;101024.97;5081408;28;20100;-45
2023/07/08 06:01:59;;;;;;;18.13;6.60;;;;;;;13.38;85.12;101025.09;5071388;28;20025;-44
2023/07/08 06:04:26;;;;;;;21.90;6.65;;;;;;;13.25;85.57;101027.88;5071452;28;20021;-44
2023/07/08 06:06:52;;;;;;;12.32;4.97;;;;;;;13.38;84.80;101022.41;5071149;28;20024;-43
2023/07/08 06:09:18;;;;;;;21.67;6.55;;;;;;;13.29;85.03;101018.34;5071437;28;20063;-46
2023/07/08 06:11:44;;;;;;;17.63;5.97;;;;;;;13.31;85.10;101021.63;5071306;28;20024;-44
2023/07/08 06:14:13;;;;;;;21.42;6.15;;;;;;;13.34;85.31;101013.13;5071579;28;20071;-47
2023/07/08 06:16:39;;;;;;;17.73;5.85;;;;;;;13.31;85.58;101016.25;5071183;28;20087;-45
2023/07/08 06:19:05;;;;;;;22.35;6.38;;;;;;;13.32;85.12;101012.50;5078510;28;20035;-45
2023/07/08 06:21:32;;;;;;;18.83;5.53;;;;;;;13.29;85.12;101023.72;5091625;28;20035;-44
2023/07/08 06:23:58;;;;;;;18.50;6.05;;;;;;;13.30;84.79;101019.16;5091448;28;20028;-45
2023/07/08 06:26:24;;;;;;;24.27;6.10;;;;;;;13.16;85.16;101015.75;5092496;28;20078;-45
2023/07/08 06:28:50;;;;;;;20.13;6.82;;;;;;;13.12;85.53;101022.59;5111804;28;20016;-45
2023/07/08 06:31:16;;;;;;;23.65;6.35;;;;;;;13.22;85.00;101031.03;5111615;28;20031;-46
2023/07/08 06:33:43;;;;;;;18.42;5.97;;;;;;;13.16;85.74;101030.00;5112090;28;20373;-45
2023/07/08 06:36:09;;;;;;;21.48;6.68;;;;;;;13.13;85.88;101029.59;5109838;28;20484;-45
2023/07/08 06:38:35;;;;;;;22.77;7.05;;;;;;;13.11;85.77;101029.00;5094645;28;20040;-44
2023/07/08 06:41:02;;;;;;;23.33;6.78;;;;;;;13.15;85.47;101022.94;5091365;28;20039;-45
2023/07/08 06:43:28;;;;;;;15.23;5.63;;;;;;;13.16;85.45;101035.38;5091467;28;20061;-44
2023/07/08 06:45:54;;;;;;;21.13;5.88;;;;;;;13.16;85.47;101026.50;5091165;28;20362;-44
2023/07/08 06:48:21;;;;;;;25.75;6.95;;;;;;;13.11;85.67;101034.38;5091354;28;20024;-45
2023/07/08 06:50:48;;;;;;;19.17;6.65;;;;;;;13.15;85.44;101043.63;5104249;28;20032;-46
2023/07/08 06:53:16;;;;;;;20.75;5.95;;;;;;;13.24;85.21;101047.75;5111957;28;20031;-44
2023/07/08 06:55:45;;;;;;;23.67;6.40;;;;;;;13.20;84.80;101050.00;5114407;28;20020;-44
2023/07/08 06:58:12;;;;;;;28.15;6.93;;;;;;;12.95;85.91;101038.41;5115360;28;20481;-48
2023/07/08 07:00:42;;;;;;;22.13;6.60;;;;;;;13.06;85.64;101055.72;5076514;28;20108;-45
2023/07/08 07:03:09;;;;;;;27.45;7.13;;;;;;;13.23;84.83;101056.03;5074481;28;20032;-45
2023/07/08 07:05:35;;;;;;;20.65;6.35;;;;;;;13.25;84.43;101053.94;5074874;28;20035;-43
2023/07/08 07:08:02;;;;;;;19.50;6.30;;;;;;;13.16;84.51;101046.13;5098603;28;20062;-43
2023/07/08 07:10:28;;;;;;;24.75;6.40;;;;;;;13.17;84.79;101063.06;5094601;28;20111;-42
2023/07/08 07:12:54;;;;;;;21.92;5.47;;;;;;;13.26;84.12;101067.16;5094598;28;20035;-42
2023/07/08 07:15:20;;;;;;;25.33;6.15;;;;;;;13.23;84.13;101064.09;5094813;28;20054;-45
2023/07/08 07:17:47;;;;;;;18.50;6.00;;;;;;;13.34;83.53;101069.59;5094597;28;20024;-42
2023/07/08 07:20:13;;;;;;;19.48;5.82;;;;;;;13.47;83.28;101068.66;5109701;28;20400;-42
2023/07/08 07:22:40;;;;;;;23.23;6.15;;;;;;;13.45;83.09;101068.88;5114885;28;20557;-42
2023/07/08 07:25:06;;;;;;;17.40;5.53;;;;;;;13.37;83.53;101068.31;5114760;28;20031;-42
2023/07/08 07:27:33;;;;;;;20.25;6.18;;;;;;;13.43;83.11;101070.94;5114746;28;20107;-42
2023/07/08 07:29:59;;;;;;;19.80;5.72;;;;;;;13.37;83.01;101077.22;5114905;28;20124;-42
2023/07/08 07:32:25;;;;;;;20.05;6.07;;;;;;;13.11;84.31;101062.06;5114782;28;20747;-42
2023/07/08 07:34:52;;;;;;;14.88;6.00;;;;;;;13.13;84.46;101069.91;5114811;28;20055;-42
2023/07/08 07:37:21;;;;;;;17.17;5.18;;;;;;;13.13;84.18;101057.31;5102274;28;20032;-44
2023/07/08 07:39:47;;;;;;;17.83;5.45;;;;;;;13.04;84.50;101065.84;5098617;28;20024;-45
2023/07/08 07:42:15;;;;;;;19.55;6.03;;;;;;;13.07;84.65;101060.84;5114775;28;20030;-44
2023/07/08 07:44:41;;;;;;;21.98;6.20;;;;;;;12.99;85.07;101063.78;5114687;28;20034;-42
2023/07/08 07:47:09;;;;;;;19.33;5.95;;;;;;;12.99;85.06;101057.59;5114264;28;20119;-41
2023/07/08 07:49:36;;;;;;;19.77;6.05;;;;;;;13.13;84.53;101054.63;5114668;28;20024;-45
2023/07/08 07:52:02;;;;;;;18.13;5.80;;;;;;;12.97;85.17;101052.44;5114495;28;20015;-43
2023/07/08 07:54:29;;;;;;;20.23;5.30;;;;;;;12.97;85.12;101067.75;5114671;28;20038;-42
2023/07/08 07:56:55;;;;;;;24.42;6.43;;;;;;;12.94;85.70;101056.41;5114174;28;20133;-44
2023/07/08 07:59:21;;;;;;;21.83;5.95;;;;;;;12.98;85.59;101058.63;5096898;28;20031;-43
2023/07/08 08:01:48;;;;;;;16.63;6.03;;;;;;;12.97;85.12;101054.31;5099434;28;20115;-44
2023/07/08 08:04:14;;;;;;;13.45;5.55;;;;;;;13.02;84.87;101049.13;5114398;28;20022;-42
2023/07/08 08:06:40;;;;;;;20.27;5.93;;;;;;;13.03;84.93;101048.88;5113009;28;20051;-43
2023/07/08 08:09:07;;;;;;;20.88;6.25;;;;;;;12.91;85.46;101047.94;5114057;28;20416;-43
2023/07/08 08:11:34;;;;;;;21.17;6.68;;;;;;;12.83;85.63;101046.34;5114025;28;20050;-43
2023/07/08 08:14:01;;;;;;;29.25;6.72;;;;;;;12.80;86.24;101056.69;5113559;28;20049;-43
2023/07/08 08:16:27;;;;;;;18.13;5.18;;;;;;;12.86;85.69;101042.38;5095983;28;20016;-45
2023/07/08 08:18:53;;;;;;;21.95;5.93;;;;;;;12.91;85.75;101050.63;5094817;28;20536;-43
2023/07/08 08:21:21;;;;;;;22.80;6.00;;;;;;;12.89;85.81;101045.47;5090487;28;20136;-45
2023/07/08 08:23:47;;;;;;;17.75;6.07;;;;;;;12.84;86.03;101053.34;5090421;28;20036;-42
2023/07/08 08:26:14;;;;;;;29.45;6.00;;;;;;;12.88;85.82;101051.91;5073101;28;20111;-44
2023/07/08 08:28:41;;;;;;;19.63;5.75;;;;;;;12.91;85.48;101056.81;5072929;28;20024;-46
2023/07/08 08:31:08;;;;;;;13.68;5.88;;;;;;;12.83;86.01;101053.59;5105717;28;20020;-43
2023/07/08 08:33:34;;;;;;;17.58;6.22;;;;;;;12.84;85.83;101057.91;5113656;28;20210;-42
2023/07/08 08:36:00;;;;;;;19.30;5.03;;;;;;;12.86;85.63;101056.63;5113394;28;20410;-46
2023/07/08 08:38:26;;;;;;;16.10;5.80;;;;;;;12.66;86.37;101064.00;5113535;28;20073;-47
2023/07/08 08:40:52;;;;;;;15.70;5.50;;;;;;;12.84;85.71;101058.72;5104498;28;20433;-43
2023/07/08 08:43:26;;;;;;;17.80;5.95;;;;;;;12.67;86.71;101068.34;5113458;28;20074;-43
2023/07/08 08:46:09;;;;;;;20.35;6.05;;;;;;;12.79;86.18;101065.78;5113230;28;20032;-43
2023/07/08 08:48:43;;;;;;;20.60;5.80;;;;;;;12.89;85.29;101075.03;5113396;28;20039;-43
2023/07/08 08:51:15;;;;;;;13.05;5.45;;;;;;;12.94;84.69;101072.53;5113309;28;20031;-43
2023/07/08 08:53:42;;;;;;;12.02;5.20;;;;;;;12.86;85.13;101067.38;5113461;28;20019;-44
2023/07/08 08:56:22;;;;;;;14.35;5.32;;;;;;;12.79;85.61;101068.47;5097550;28;20021;-45
2023/07/08 08:59:12;;;;;;;14.13;5.85;;;;;;;12.77;85.81;101066.00;5072388;28;20601;-43
2023/07/08 09:01:39;;;;;;;15.75;5.50;;;;;;;12.84;85.45;101061.41;5093466;28;20055;-43
2023/07/08 09:04:27;;;;;;;16.08;5.65;;;;;;;12.73;86.13;101061.28;5113207;28;20554;-44
2023/07/08 09:07:01;;;;;;;17.23;5.03;;;;;;;12.63;86.49;101065.25;5112741;28;20051;-43
2023/07/08 09:09:44;;;;;;;10.73;4.88;;;;;;;12.71;86.22;101064.16;5113329;28;20032;-45
2023/07/08 09:12:16;;;;;;;20.38;5.93;;;;;;;12.69;85.48;101055.50;5112938;28;20033;-44
2023/07/08 09:14:43;;;;;;;21.00;5.93;;;;;;;12.62;86.65;101052.03;5094333;28;20066;-45
2023/07/08 09:17:34;;;;;;;20.75;6.03;;;;;;;12.49;87.42;101049.38;5091883;28;20111;-43
2023/07/08 09:20:03;;;;;;;14.32;4.95;;;;;;;12.51;87.61;101053.53;5092263;28;20043;-44
2023/07/08 09:22:34;;;;;;;20.80;5.68;;;;;;;12.34;88.79;101047.81;5092100;28;20473;-43
2023/07/08 09:25:15;;;;;;;19.35;5.57;;;;;;;12.48;87.68;101053.13;5092501;28;20470;-45
2023/07/08 09:27:42;;;;;;;21.42;5.78;;;;;;;12.45;87.96;101050.88;5091942;28;20449;-44
2023/07/08 09:30:20;;;;;;;15.10;4.90;;;;;;;12.40;88.09;101049.66;5092467;28;20485;-45
2023/07/08 09:32:48;;;;;;;21.35;6.20;;;;;;;12.40;87.92;101052.34;5092536;28;20402;-43
2023/07/08 09:35:21;;;;;;;18.13;5.32;;;;;;;12.45;87.75;101045.50;5092189;28;20024;-43
2023/07/08 09:37:49;;;;;;;12.45;5.10;;;;;;;12.42;88.06;101049.44;5091571;28;20078;-44
2023/07/08 09:40:17;;;;;;;13.77;5.10;;;;;;;12.44;88.02;101044.69;5090056;28;20126;-47
2023/07/08 09:42:46;;;;;;;23.85;5.57;;;;;;;12.48;87.60;101047.75;5066420;28;20028;-44
2023/07/08 09:45:17;;;;;;;14.00;5.50;;;;;;;12.47;88.28;101051.47;5072060;28;20055;-43
2023/07/08 09:47:45;;;;;;;17.80;5.15;;;;;;;12.45;87.90;101049.00;5071417;28;20027;-45
2023/07/08 09:50:24;;;;;;;14.48;4.72;;;;;;;12.47;87.52;101051.47;5092587;28;20035;-44
2023/07/08 09:52:54;;;;;;;19.85;5.32;;;;;;;12.47;87.81;101048.78;5071610;28;20035;-45
2023/07/08 09:55:20;;;;;;;18.73;6.25;;;;;;;12.41;88.18;101045.91;5071908;28;20062;-44
2023/07/08 09:57:50;;;;;;;15.52;5.55;;;;;;;12.37;88.07;101036.63;5071229;28;20027;-44
2023/07/08 10:00:19;;;;;;;10.85;4.40;;;;;;;12.49;87.06;101035.97;5087629;28;20111;-45
2023/07/08 10:02:53;;;;;;;19.02;4.97;;;;;;;12.40;87.73;101033.53;5091979;28;20024;-43
2023/07/08 10:05:42;;;;;;;16.42;5.43;;;;;;;12.18;88.79;101037.56;5091804;28;20032;-43
2023/07/08 10:08:19;;;;;;;12.13;5.13;;;;;;;12.37;88.10;101042.00;5091520;28;20032;-43
2023/07/08 10:11:12;;;;;;;13.50;5.40;;;;;;;12.23;88.40;101035.06;5094111;28;20021;-47
2023/07/08 10:13:41;;;;;;;12.13;4.60;;;;;;;12.22;89.02;101030.72;5071465;28;20111;-47
2023/07/08 10:16:24;;;;;;;12.60;4.95;;;;;;;12.31;88.52;101032.13;5071185;28;20036;-45
2023/07/08 10:18:51;;;;;;;12.38;3.80;;;;;;;12.34;87.34;101034.41;5071069;28;20115;-46
2023/07/08 10:21:35;;;;;;;15.82;4.20;;;;;;;12.32;87.63;101028.41;5071496;28;20478;-43
2023/07/08 10:24:35;;;;;;;12.75;4.50;;;;;;;12.22;87.71;101027.22;5071434;28;20033;-43
2023/07/08 10:27:29;;;;;;;11.93;4.10;;;;;;;12.37;87.34;101036.63;5071148;28;20074;-44
2023/07/08 10:30:14;;;;;;;15.60;4.32;;;;;;;12.27;87.06;101030.06;5111137;28;20575;-45
2023/07/08 10:33:08;;;;;;;7.90;3.53;;;;;;;12.26;87.33;101040.00;5113004;28;20055;-44
2023/07/08 10:35:40;;;;;;;14.00;4.07;;;;;;;12.21;87.44;101041.66;5100527;28;20035;-45
2023/07/08 10:38:54;;;;;;;11.05;3.67;;;;;;;12.24;87.61;101044.75;5096252;28;20044;-47
2023/07/08 10:41:20;;;;;;;7.65;3.40;;;;;;;12.26;87.30;101045.34;5070100;28;20489;-43
2023/07/08 10:44:04;;;;;;;14.45;4.18;;;;;;;12.17;87.60;101048.50;5075133;28;20041;-44
2023/07/08 10:47:04;;;;;;;10.85;3.85;;;;;;;12.23;87.66;101050.34;5075272;28;20028;-46
2023/07/08 10:49:41;;;;;;;13.77;3.88;;;;;;;12.09;88.14;101052.22;5074997;28;20032;-45
2023/07/08 10:52:42;;;;;;;9.52;3.63;;;;;;;12.18;88.14;101050.97;5076837;28;20032;-43
2023/07/08 10:55:14;;;;;;;14.20;4.38;;;;;;;12.20;88.25;101054.25;5078662;28;20024;-45
2023/07/08 10:57:43;;;;;;;15.20;4.68;;;;;;;12.06;88.88;101053.47;5094977;28;20028;-43
2023/07/08 11:00:32;;;;;;;20.08;4.07;;;;;;;12.12;88.59;101051.81;5095276;28;20048;-45
2023/07/08 11:03:16;;;;;;;14.60;4.88;;;;;;;12.03;88.55;101061.13;5095192;28;20032;-44
2023/07/08 11:05:45;;;;;;;13.13;4.25;;;;;;;12.08;88.84;101059.44;5094892;28;20355;-44
2023/07/08 11:08:29;;;;;;;8.05;4.15;;;;;;;12.10;89.08;101064.59;5094890;28;20028;-44
2023/07/08 11:11:27;;;;;;;18.00;4.43;;;;;;;12.12;89.60;101074.09;5094927;28;20028;-43
2023/07/08 11:14:01;;;;;;;12.27;3.95;;;;;;;12.19;89.63;101070.56;5052033;28;20052;-44
2023/07/08 11:16:44;;;;;;;9.85;3.53;;;;;;;12.16;89.87;101079.88;5051968;28;20033;-46
2023/07/08 11:19:21;;;;;;;12.18;3.97;;;;;;;12.25;89.15;101080.47;5085700;22;20047;-43
2023/07/08 11:21:51;;;;;;;9.15;4.03;;;;;;;12.25;88.87;101075.91;5094800;28;20024;-43
2023/07/08 11:24:32;;;;;;;11.60;3.97;;;;;;;12.32;88.06;101071.34;5095078;28;20020;-44
2023/07/08 11:27:07;;;;;;;10.00;3.92;;;;;;;12.37;87.77;101074.22;5094139;28;20020;-44
2023/07/08 11:29:45;;;;;;;;;;;;;;;12.47;87.32;101070.28;5094856;28;20095;-43
2023/07/08 11:32:16;;;;;;;8.55;3.70;;;;;;;12.42;86.87;101074.41;5094563;28;19916;-43